createdAt,value
2023-04-11T00:00:50.188Z,8.66
2023-04-11T00:03:17.045Z,8.57
2023-04-11T00:05:43.787Z,8.52
2023-04-11T00:08:10.538Z,8.53
2023-04-11T00:10:37.144Z,8.41
2023-04-11T00:13:03.762Z,8.36
2023-04-11T00:15:32.789Z,8.34
2023-04-11T00:17:59.435Z,8.33
2023-04-11T00:20:26.033Z,8.28
2023-04-11T00:22:55.469Z,8.26
2023-04-11T00:25:22.099Z,8.25
2023-04-11T00:27:48.771Z,8.34
2023-04-11T00:30:15.505Z,8.34
2023-04-11T00:32:42.176Z,8.38
2023-04-11T00:35:09.315Z,8.39
2023-04-11T00:37:36.490Z,8.34
2023-04-11T00:40:05.812Z,8.38
2023-04-11T00:42:33.253Z,8.32
2023-04-11T00:44:59.918Z,8.21
2023-04-11T00:47:26.810Z,8.21
2023-04-11T00:49:53.492Z,8.27
2023-04-11T00:52:20.329Z,8.34
2023-04-11T00:54:46.971Z,8.36
2023-04-11T00:57:14.385Z,8.20
2023-04-11T00:59:42.333Z,8.15
2023-04-11T01:02:09.560Z,8.10
2023-04-11T01:04:36.245Z,8.04
2023-04-11T01:07:06.254Z,8.00
2023-04-11T01:09:35.459Z,7.97
2023-04-11T01:12:04.095Z,7.92
2023-04-11T01:14:30.985Z,7.87
2023-04-11T01:16:58.427Z,7.83
2023-04-11T01:19:29.199Z,7.83
2023-04-11T01:21:58.085Z,7.80
2023-04-11T01:24:25.113Z,7.80
2023-04-11T01:26:52.203Z,7.74
2023-04-11T01:29:18.979Z,7.72
2023-04-11T01:31:48.096Z,7.69
2023-04-11T01:34:17.163Z,7.67
2023-04-11T01:36:44.330Z,7.64
2023-04-11T01:39:11.312Z,7.57
2023-04-11T01:41:38.723Z,7.56
2023-04-11T01:44:05.864Z,7.53
2023-04-11T01:46:32.722Z,7.50
2023-04-11T01:49:01.552Z,7.50
2023-04-11T01:51:28.551Z,7.48
2023-04-11T01:53:55.511Z,7.46
2023-04-11T01:56:22.382Z,7.45
2023-04-11T01:58:49.250Z,7.41
2023-04-11T02:01:20.064Z,7.40
2023-04-11T02:03:46.825Z,7.38
2023-04-11T02:06:15.766Z,7.38
2023-04-11T02:08:43.181Z,7.35
2023-04-11T02:11:10.348Z,7.35
2023-04-11T02:13:37.096Z,7.35
2023-04-11T02:16:09.668Z,7.33
2023-04-11T02:18:36.508Z,7.29
2023-04-11T02:21:03.452Z,7.27
2023-04-11T02:23:30.172Z,7.23
2023-04-11T02:25:56.836Z,7.14
2023-04-11T02:28:23.481Z,7.11
2023-04-11T02:30:50.194Z,7.10
2023-04-11T02:33:16.834Z,7.08
2023-04-11T02:35:43.522Z,7.05
2023-04-11T02:38:10.333Z,7.03
2023-04-11T02:40:37.085Z,7.03
2023-04-11T02:43:03.894Z,7.03
2023-04-11T02:45:31.041Z,7.01
2023-04-11T02:47:58.514Z,7.01
2023-04-11T02:50:27.256Z,6.98
2023-04-11T02:52:54.724Z,6.98
2023-04-11T02:55:24.467Z,6.93
2023-04-11T02:57:51.902Z,6.89
2023-04-11T03:00:22.174Z,6.89
2023-04-11T03:02:49.654Z,6.87
2023-04-11T03:05:16.380Z,6.84
2023-04-11T03:07:44.053Z,6.82
2023-04-11T03:10:10.936Z,6.80
2023-04-11T03:12:37.686Z,6.75
2023-04-11T03:15:04.633Z,6.73
2023-04-11T03:17:31.347Z,6.74
2023-04-11T03:19:58.158Z,6.70
2023-04-11T03:22:25.241Z,6.68
2023-04-11T03:24:51.952Z,6.66
2023-04-11T03:27:18.643Z,6.66
2023-04-11T03:29:45.287Z,6.65
2023-04-11T03:32:11.926Z,6.62
2023-04-11T03:34:38.549Z,6.56
2023-04-11T03:37:05.212Z,6.54
2023-04-11T03:39:31.886Z,6.53
2023-04-11T03:41:58.600Z,6.54
2023-04-11T03:44:25.264Z,6.57
2023-04-11T03:46:51.938Z,6.60
2023-04-11T03:49:18.718Z,6.52
2023-04-11T03:51:46.254Z,6.50
2023-04-11T03:54:12.969Z,6.47
2023-04-11T03:56:39.581Z,6.46
2023-04-11T03:59:06.223Z,6.48
2023-04-11T04:01:32.881Z,6.43
2023-04-11T04:04:00.905Z,6.42
2023-04-11T04:06:28.660Z,6.37
2023-04-11T04:08:55.449Z,6.39
2023-04-11T04:11:22.056Z,6.41
2023-04-11T04:13:48.726Z,6.41
2023-04-11T04:16:17.093Z,6.41
2023-04-11T04:18:43.747Z,6.38
2023-04-11T04:21:10.408Z,6.39
2023-04-11T04:23:39.420Z,6.37
2023-04-11T04:26:06.711Z,6.39
2023-04-11T04:28:33.453Z,6.36
2023-04-11T04:31:02.199Z,6.31
2023-04-11T04:33:28.891Z,6.31
2023-04-11T04:35:59.913Z,6.29
2023-04-11T04:38:29.049Z,6.31
2023-04-11T04:40:55.737Z,6.26
2023-04-11T04:43:24.193Z,6.28
2023-04-11T04:45:51.246Z,6.31
2023-04-11T04:48:17.996Z,6.37
2023-04-11T04:50:45.794Z,6.40
2023-04-11T04:53:13.634Z,6.41
2023-04-11T04:55:40.727Z,6.41
2023-04-11T04:58:07.320Z,6.45
2023-04-11T05:00:33.927Z,6.48
2023-04-11T05:03:03.404Z,6.44
2023-04-11T05:05:30.112Z,6.46
2023-04-11T05:07:56.736Z,6.49
2023-04-11T05:10:23.538Z,6.51
2023-04-11T05:12:50.355Z,6.48
2023-04-11T05:15:16.948Z,6.45
2023-04-11T05:17:43.604Z,6.47
2023-04-11T05:20:10.740Z,6.54
2023-04-11T05:22:38.112Z,6.57
2023-04-11T05:25:05.719Z,6.63
2023-04-11T05:27:32.501Z,6.67
2023-04-11T05:30:00.690Z,6.70
2023-04-11T05:32:27.329Z,6.76
2023-04-11T05:34:58.195Z,6.85
2023-04-11T05:37:26.224Z,6.86
2023-04-11T05:39:56.422Z,6.97
2023-04-11T05:42:25.459Z,7.03
2023-04-11T05:44:52.031Z,7.07
2023-04-11T05:47:18.770Z,7.14
2023-04-11T05:49:45.565Z,7.15
2023-04-11T05:52:15.060Z,7.24
2023-04-11T05:54:41.668Z,7.31
2023-04-11T05:57:08.244Z,7.29
2023-04-11T05:59:36.157Z,7.36
2023-04-11T06:02:03.018Z,7.40
2023-04-11T06:04:29.829Z,7.47
2023-04-11T06:06:56.702Z,7.54
2023-04-11T06:09:23.418Z,7.66
2023-04-11T06:11:50.032Z,7.78
2023-04-11T06:14:16.838Z,7.98
2023-04-11T06:16:43.492Z,8.10
2023-04-11T06:19:12.754Z,8.33
2023-04-11T06:21:41.470Z,8.45
2023-04-11T06:24:11.321Z,8.52
2023-04-11T06:26:37.974Z,8.53
2023-04-11T06:29:05.776Z,8.59
2023-04-11T06:31:36.343Z,8.65
2023-04-11T06:34:03.271Z,8.71
2023-04-11T06:36:30.289Z,8.72
2023-04-11T06:38:56.988Z,8.74
2023-04-11T06:41:23.839Z,8.76
2023-04-11T06:43:50.598Z,8.78
2023-04-11T06:46:17.274Z,8.81
2023-04-11T06:48:46.300Z,8.83
2023-04-11T06:51:12.904Z,8.86
2023-04-11T06:53:39.561Z,8.95
2023-04-11T06:56:06.746Z,8.95
2023-04-11T06:58:33.311Z,8.98
2023-04-11T07:00:59.887Z,9.00
2023-04-11T07:03:26.681Z,9.01
2023-04-11T07:05:53.389Z,9.05
2023-04-11T07:08:20.101Z,9.09
2023-04-11T07:10:47.883Z,9.18
2023-04-11T07:13:14.539Z,9.20
2023-04-11T07:15:41.162Z,9.16
2023-04-11T07:18:08.077Z,9.22
2023-04-11T07:20:35.030Z,9.24
2023-04-11T07:23:02.258Z,9.36
2023-04-11T07:25:33.841Z,9.41
2023-04-11T07:28:01.040Z,9.42
2023-04-11T07:30:28.690Z,9.50
2023-04-11T07:32:55.468Z,9.54
2023-04-11T07:35:22.348Z,9.60
2023-04-11T07:37:48.971Z,9.65
2023-04-11T07:40:15.679Z,9.70
2023-04-11T07:42:42.696Z,9.79
2023-04-11T07:45:09.571Z,9.89
2023-04-11T07:47:36.331Z,9.85
2023-04-11T07:50:03.848Z,9.96
2023-04-11T07:52:31.073Z,9.98
2023-04-11T07:54:57.844Z,10.03
2023-04-11T07:57:24.568Z,10.13
2023-04-11T07:59:54.108Z,10.17
2023-04-11T08:02:20.834Z,10.25
2023-04-11T08:04:47.594Z,10.33
2023-04-11T08:07:14.577Z,10.35
2023-04-11T08:09:42.575Z,10.34
2023-04-11T08:12:09.832Z,10.37
2023-04-11T08:14:37.284Z,10.43
2023-04-11T08:17:04.621Z,10.53
2023-04-11T08:19:34.852Z,10.60
2023-04-11T08:22:01.526Z,10.72
2023-04-11T08:24:28.204Z,10.79
2023-04-11T08:26:55.012Z,10.85
2023-04-11T08:29:21.658Z,10.98
2023-04-11T08:31:48.370Z,11.10
2023-04-11T08:34:15.063Z,11.26
2023-04-11T08:36:41.862Z,11.36
2023-04-11T08:39:08.917Z,11.50
2023-04-11T08:41:35.943Z,11.61
2023-04-11T08:44:02.882Z,11.67
2023-04-11T08:46:32.549Z,11.78
2023-04-11T08:48:59.238Z,11.87
2023-04-11T08:51:27.078Z,11.97
2023-04-11T08:53:58.039Z,12.09
2023-04-11T08:56:24.988Z,12.14
2023-04-11T08:58:51.607Z,12.22
2023-04-11T09:01:34.289Z,12.41
2023-04-11T09:04:05.216Z,12.49
2023-04-11T09:06:33.842Z,12.52
2023-04-11T09:09:05.285Z,12.58
2023-04-11T09:11:53.174Z,12.60
2023-04-11T09:14:24.958Z,12.64
2023-04-11T09:17:00.254Z,12.69
2023-04-11T09:19:32.050Z,12.80
2023-04-11T09:22:03.663Z,12.82
2023-04-11T09:24:32.792Z,12.90
2023-04-11T09:27:11.280Z,12.97
2023-04-11T09:29:39.489Z,13.02
2023-04-11T09:32:06.496Z,13.06
2023-04-11T09:34:37.842Z,13.17
2023-04-11T09:37:04.729Z,13.20
2023-04-11T09:39:32.557Z,13.32
2023-04-11T09:41:59.381Z,13.39
2023-04-11T09:44:38.359Z,13.53
2023-04-11T09:47:05.396Z,13.58
2023-04-11T09:49:34.243Z,13.62
2023-04-11T09:52:01.075Z,13.71
2023-04-11T09:54:28.748Z,13.76
2023-04-11T09:56:57.222Z,13.85
2023-04-11T09:59:26.875Z,13.92
2023-04-11T10:01:53.757Z,13.96
2023-04-11T10:04:20.591Z,14.06
2023-04-11T10:07:02.251Z,14.18
2023-04-11T10:09:29.946Z,14.22
2023-04-11T10:11:57.095Z,14.33
2023-04-11T10:14:39.268Z,14.34
2023-04-11T10:17:23.971Z,14.40
2023-04-11T10:19:57.480Z,14.46
2023-04-11T10:22:46.545Z,14.50
2023-04-11T10:25:20.054Z,14.58
2023-04-11T10:27:53.574Z,14.58
2023-04-11T10:30:39.221Z,14.67
2023-04-11T10:33:16.565Z,14.74
2023-04-11T10:35:58.516Z,14.81
2023-04-11T10:38:40.577Z,14.87
2023-04-11T10:41:27.589Z,14.99
2023-04-11T10:44:23.421Z,15.13
2023-04-11T10:46:54.731Z,15.20
2023-04-11T10:49:37.807Z,15.28
2023-04-11T10:52:37.322Z,15.40
2023-04-11T10:55:19.744Z,15.47
2023-04-11T10:58:09.021Z,15.58
2023-04-11T11:00:50.304Z,15.69
2023-04-11T11:03:24.389Z,15.77
2023-04-11T11:06:08.594Z,15.82
2023-04-11T11:08:41.945Z,15.88
2023-04-11T11:11:11.376Z,15.90
2023-04-11T11:13:45.926Z,15.94
2023-04-11T11:16:17.381Z,15.98
2023-04-11T11:18:52.571Z,15.98
2023-04-11T11:21:27.833Z,16.06
2023-04-11T11:24:00.432Z,16.13
2023-04-11T11:26:40.963Z,16.18
2023-04-11T11:29:08.452Z,16.27
2023-04-11T11:31:37.905Z,16.24
2023-04-11T11:34:22.161Z,16.24
2023-04-11T11:36:51.811Z,16.21
2023-04-11T11:39:22.842Z,16.18
2023-04-11T11:41:51.159Z,16.12
2023-04-11T11:44:28.721Z,16.13
2023-04-11T11:47:09.256Z,16.10
2023-04-11T11:49:53.371Z,16.11
2023-04-11T11:52:42.571Z,16.06
2023-04-11T11:55:31.266Z,16.06
2023-04-11T11:58:02.922Z,16.08
2023-04-11T12:00:34.989Z,16.01
2023-04-11T12:03:02.611Z,15.98
2023-04-11T12:05:32.057Z,15.95
2023-04-11T12:08:01.141Z,15.95
2023-04-11T12:10:38.996Z,15.97
2023-04-11T12:13:20.032Z,15.94
2023-04-11T12:15:52.241Z,15.92
2023-04-11T12:18:23.479Z,15.85
2023-04-11T12:20:51.272Z,15.79
2023-04-11T12:23:18.694Z,15.72
2023-04-11T12:25:46.716Z,15.67
2023-04-11T12:28:16.951Z,15.62
2023-04-11T12:30:43.542Z,15.63
2023-04-11T12:33:10.330Z,15.61
2023-04-11T12:35:37.048Z,15.58
2023-04-11T12:38:04.362Z,15.57
2023-04-11T12:40:33.952Z,15.52
2023-04-11T12:43:00.581Z,15.51
2023-04-11T12:45:27.459Z,15.55
2023-04-11T12:47:54.410Z,15.51
2023-04-11T12:50:24.685Z,15.38
2023-04-11T12:52:51.813Z,15.22
2023-04-11T12:55:18.641Z,15.24
2023-04-11T12:57:45.620Z,15.18
2023-04-11T13:00:13.407Z,15.17
2023-04-11T13:02:45.232Z,15.13
2023-04-11T13:05:14.568Z,15.16
2023-04-11T13:07:45.594Z,14.97
2023-04-11T13:10:14.120Z,14.88
2023-04-11T13:12:41.956Z,14.75
2023-04-11T13:15:16.253Z,14.57
2023-04-11T13:17:43.279Z,14.46
2023-04-11T13:20:11.209Z,14.40
2023-04-11T13:22:42.016Z,14.33
2023-04-11T13:25:09.803Z,14.30
2023-04-11T13:27:37.800Z,14.24
2023-04-11T13:30:05.133Z,14.08
2023-04-11T13:32:32.277Z,14.02
2023-04-11T13:34:59.044Z,13.92
2023-04-11T13:37:25.857Z,13.90
2023-04-11T13:39:52.613Z,13.77
2023-04-11T13:42:19.260Z,13.67
2023-04-11T13:44:46.026Z,13.58
2023-04-11T13:47:12.758Z,13.48
2023-04-11T13:49:39.355Z,13.39
2023-04-11T13:52:06.058Z,13.39
2023-04-11T13:54:32.658Z,13.45
2023-04-11T13:56:59.601Z,13.34
2023-04-11T13:59:27.365Z,13.28
2023-04-11T14:01:53.937Z,13.20
2023-04-11T14:04:20.652Z,13.08
2023-04-11T14:06:47.347Z,13.01
2023-04-11T14:09:14.343Z,12.94
2023-04-11T14:11:41.136Z,12.91
2023-04-11T14:14:10.134Z,12.90
2023-04-11T14:16:36.809Z,12.82
2023-04-11T14:19:03.523Z,12.80
2023-04-11T14:21:30.185Z,12.70
2023-04-11T14:23:56.936Z,12.66
2023-04-11T14:26:23.671Z,12.55
2023-04-11T14:28:50.298Z,12.48
2023-04-11T14:31:17.038Z,12.43
2023-04-11T14:33:46.198Z,12.36
2023-04-11T14:36:12.882Z,12.34
2023-04-11T14:38:42.114Z,12.32
2023-04-11T14:41:08.830Z,12.42
2023-04-11T14:43:35.558Z,12.39
2023-04-11T14:46:02.511Z,12.30
2023-04-11T14:48:29.593Z,12.38
2023-04-11T14:50:56.325Z,12.30
2023-04-11T14:53:23.101Z,12.34
2023-04-11T14:55:49.818Z,12.30
2023-04-11T14:58:16.931Z,12.26
2023-04-11T15:00:44.976Z,12.29
2023-04-11T15:03:12.460Z,12.19
2023-04-11T15:05:39.378Z,12.10
2023-04-11T15:08:06.155Z,12.02
2023-04-11T15:10:32.830Z,11.99
2023-04-11T15:12:59.749Z,11.93
2023-04-11T15:15:26.388Z,11.84
2023-04-11T15:18:20.805Z,11.84
2023-04-11T15:20:47.482Z,11.81
2023-04-11T15:23:14.241Z,11.76
2023-04-11T15:25:40.884Z,11.74
2023-04-11T15:28:07.568Z,11.71
2023-04-11T15:30:34.590Z,11.67
2023-04-11T15:33:01.246Z,11.66
2023-04-11T15:35:27.930Z,11.62
2023-04-11T15:37:56.850Z,11.57
2023-04-11T15:40:23.480Z,11.54
2023-04-11T15:42:50.392Z,11.52
2023-04-11T15:45:22.383Z,11.45
2023-04-11T15:47:48.985Z,11.48
2023-04-11T15:50:17.506Z,11.42
2023-04-11T15:52:47.945Z,11.42
2023-04-11T15:55:16.112Z,11.39
2023-04-11T15:57:42.782Z,11.40
2023-04-11T16:00:10.020Z,11.47
2023-04-11T16:02:37.617Z,11.43
2023-04-11T16:05:04.735Z,11.42
2023-04-11T16:07:31.539Z,11.45
2023-04-11T16:09:58.302Z,11.43
2023-04-11T16:12:25.058Z,11.42
2023-04-11T16:14:51.724Z,11.43
2023-04-11T16:17:21.203Z,11.49
2023-04-11T16:19:51.370Z,11.57
2023-04-11T16:22:18.083Z,11.55
2023-04-11T16:24:45.110Z,11.56
2023-04-11T16:27:11.838Z,11.57
2023-04-11T16:29:38.659Z,11.57
2023-04-11T16:32:05.521Z,11.56
2023-04-11T16:34:32.121Z,11.54
2023-04-11T16:36:58.783Z,11.55
2023-04-11T16:39:25.411Z,11.60
2023-04-11T16:41:54.259Z,11.60
2023-04-11T16:44:22.382Z,11.62
2023-04-11T16:46:49.349Z,11.61
2023-04-11T16:49:16.601Z,11.63
2023-04-11T16:51:43.305Z,11.60
2023-04-11T16:54:14.083Z,11.62
2023-04-11T16:56:40.824Z,11.57
2023-04-11T16:59:07.599Z,11.59
2023-04-11T17:01:34.225Z,11.55
2023-04-11T17:04:01.754Z,11.52
2023-04-11T17:06:32.221Z,11.46
2023-04-11T17:08:59.002Z,11.48
2023-04-11T17:11:25.839Z,11.45
2023-04-11T17:13:54.478Z,11.43
2023-04-11T17:16:21.938Z,11.32
2023-04-11T17:18:48.592Z,11.32
2023-04-11T17:21:16.698Z,11.26
2023-04-11T17:23:43.748Z,11.23
2023-04-11T17:26:11.500Z,11.18
2023-04-11T17:28:41.109Z,11.14
2023-04-11T17:31:18.769Z,11.10
2023-04-11T17:33:45.874Z,11.10
2023-04-11T17:36:13.224Z,11.07
2023-04-11T17:38:42.194Z,11.05
2023-04-11T17:43:38.518Z,10.99
2023-04-11T17:46:05.433Z,10.93
2023-04-11T17:48:32.211Z,10.88
2023-04-11T17:50:58.804Z,10.85
2023-04-11T17:53:25.602Z,10.83
2023-04-11T17:55:52.730Z,10.82
2023-04-11T17:58:19.405Z,10.76
2023-04-11T18:00:55.498Z,10.71
2023-04-11T18:03:23.038Z,10.68
2023-04-11T18:05:54.037Z,10.67
2023-04-11T18:08:26.019Z,10.64
2023-04-11T18:11:00.104Z,10.59
2023-04-11T18:13:27.593Z,10.49
2023-04-11T18:15:54.448Z,10.48
2023-04-11T18:18:21.272Z,10.44
2023-04-11T18:20:48.104Z,10.38
2023-04-11T18:23:14.732Z,10.36
2023-04-11T18:25:41.391Z,10.37
2023-04-11T18:28:09.276Z,10.37
2023-04-11T18:30:35.904Z,10.34
2023-04-11T18:33:02.561Z,10.44
2023-04-11T18:35:29.262Z,10.36
2023-04-11T18:37:56.021Z,10.28
2023-04-11T18:40:22.865Z,10.28
2023-04-11T18:42:51.984Z,10.16
2023-04-11T18:45:22.414Z,10.13
2023-04-11T18:47:49.703Z,9.99
2023-04-11T18:50:17.279Z,9.85
2023-04-11T18:52:45.490Z,9.77
2023-04-11T18:55:12.958Z,9.69
2023-04-11T18:57:39.873Z,9.60
2023-04-11T19:00:18.995Z,9.56
2023-04-11T19:02:47.684Z,9.46
2023-04-11T19:05:14.716Z,9.41
2023-04-11T19:07:45.827Z,9.55
2023-04-11T19:10:12.827Z,9.43
2023-04-11T19:12:40.486Z,9.32
2023-04-11T19:15:09.279Z,9.30
2023-04-11T19:17:38.280Z,9.26
2023-04-11T19:20:07.297Z,9.20
2023-04-11T19:22:39.921Z,9.16
2023-04-11T19:25:09.737Z,9.09
2023-04-11T19:27:39.237Z,9.09
2023-04-11T19:30:07.220Z,9.08
2023-04-11T19:32:36.729Z,9.10
2023-04-11T19:35:04.045Z,9.05
2023-04-11T19:37:31.140Z,9.02
2023-04-11T19:39:57.766Z,9.00
2023-04-11T19:42:25.061Z,9.07
2023-04-11T19:44:52.051Z,9.05
2023-04-11T19:47:19.545Z,9.05
2023-04-11T19:49:46.145Z,9.02
2023-04-11T19:52:13.170Z,9.06
2023-04-11T19:54:39.975Z,9.02
2023-04-11T19:57:07.046Z,9.08
2023-04-11T19:59:33.765Z,9.02
2023-04-11T20:02:01.683Z,9.08
2023-04-11T20:04:28.570Z,9.07
2023-04-11T20:06:58.483Z,9.11
2023-04-11T20:09:31.409Z,9.11
2023-04-11T20:12:00.168Z,9.07
2023-04-11T20:14:26.739Z,9.03
2023-04-11T20:16:53.434Z,8.97
2023-04-11T20:19:21.676Z,9.01
2023-04-11T20:21:48.992Z,8.93
2023-04-11T20:24:17.445Z,8.83
2023-04-11T20:26:44.089Z,8.81
2023-04-11T20:29:11.193Z,8.71
2023-04-11T20:31:37.767Z,8.77
2023-04-11T20:34:04.505Z,8.69
2023-04-11T20:36:33.293Z,8.65
2023-04-11T20:38:59.928Z,8.63
2023-04-11T20:41:30.434Z,8.67
2023-04-11T20:43:57.800Z,8.69
2023-04-11T20:46:24.762Z,8.69
2023-04-11T20:48:51.405Z,8.72
2023-04-11T20:51:18.311Z,8.71
2023-04-11T20:53:44.900Z,8.72
2023-04-11T20:56:11.983Z,8.64
2023-04-11T20:58:39.350Z,8.62
2023-04-11T21:01:06.080Z,8.54
2023-04-11T21:03:37.799Z,8.56
2023-04-11T21:06:07.480Z,8.54
2023-04-11T21:08:37.435Z,8.50
2023-04-11T21:11:05.160Z,8.45
2023-04-11T21:13:31.779Z,8.46
2023-04-11T21:15:58.804Z,8.45
2023-04-11T21:18:25.614Z,8.37
2023-04-11T21:20:52.210Z,8.36
2023-04-11T21:23:18.847Z,8.30
2023-04-11T21:25:45.577Z,8.29
2023-04-11T21:28:12.192Z,8.28
2023-04-11T21:30:39.599Z,8.19
2023-04-11T21:33:06.364Z,8.17
2023-04-11T21:35:35.260Z,8.16
2023-04-11T21:38:01.877Z,8.15
2023-04-11T21:40:28.694Z,8.07
2023-04-11T21:42:58.647Z,8.03
2023-04-11T21:45:25.377Z,8.06
2023-04-11T21:47:52.082Z,8.02
2023-04-11T21:50:18.983Z,8.02
2023-04-11T21:52:46.470Z,7.99
2023-04-11T21:55:15.912Z,8.02
2023-04-11T21:57:42.525Z,7.98
2023-04-11T22:00:11.150Z,7.93
2023-04-11T22:02:38.276Z,7.90
2023-04-11T22:05:07.320Z,7.87
2023-04-11T22:07:47.077Z,7.82
2023-04-11T22:10:14.487Z,7.87
2023-04-11T22:12:41.970Z,7.97
2023-04-11T22:15:13.611Z,8.00
2023-04-11T22:17:42.394Z,7.99
2023-04-11T22:20:11.215Z,7.93
2023-04-11T22:22:38.922Z,7.89
2023-04-11T22:25:07.038Z,7.84
2023-04-11T22:27:34.616Z,7.83
2023-04-11T22:30:02.382Z,7.83
2023-04-11T22:32:30.307Z,7.86
2023-04-11T22:34:57.008Z,7.86
2023-04-11T22:37:23.815Z,7.77
2023-04-11T22:39:50.479Z,7.77
2023-04-11T22:42:17.088Z,7.85
2023-04-11T22:44:43.723Z,7.85
2023-04-11T22:47:16.274Z,7.85
2023-04-11T22:49:45.116Z,7.89
2023-04-11T22:52:19.004Z,7.93
2023-04-11T22:54:47.009Z,7.88
2023-04-11T22:57:13.633Z,7.88
2023-04-11T22:59:40.843Z,7.94
2023-04-11T23:02:07.602Z,8.04
2023-04-11T23:04:34.298Z,8.10
2023-04-11T23:07:00.916Z,8.03
2023-04-11T23:09:28.459Z,7.99
2023-04-11T23:11:58.001Z,7.93
2023-04-11T23:14:31.048Z,7.87
2023-04-11T23:16:57.770Z,7.82
2023-04-11T23:19:24.439Z,7.75
2023-04-11T23:21:51.063Z,7.82
2023-04-11T23:24:17.691Z,7.76
2023-04-11T23:26:44.283Z,7.71
2023-04-11T23:29:11.261Z,7.71
2023-04-11T23:31:37.817Z,7.75
2023-04-11T23:34:04.373Z,7.78
2023-04-11T23:36:31.081Z,7.70
2023-04-11T23:38:58.314Z,7.61
2023-04-11T23:41:25.217Z,7.55
2023-04-11T23:43:51.954Z,7.48
2023-04-11T23:46:18.615Z,7.42
2023-04-11T23:48:46.992Z,7.39
2023-04-11T23:51:13.902Z,7.36
2023-04-11T23:53:40.728Z,7.30
2023-04-11T23:56:07.851Z,7.27
2023-04-11T23:58:35.138Z,7.27
